createdAt,value
2023-03-26T06:32:46.548Z,6.67
2023-03-26T06:33:46.543Z,6.54
2023-03-26T06:34:46.466Z,6.70
2023-03-26T06:35:46.630Z,6.84
2023-03-26T06:36:47.619Z,6.81
2023-03-26T06:37:47.578Z,6.93
2023-03-26T06:38:47.512Z,6.97
2023-03-26T06:39:48.544Z,7.06
2023-03-26T06:40:47.498Z,7.06
2023-03-26T06:41:47.484Z,7.25
2023-03-26T06:43:07.746Z,7.29
2023-03-26T06:43:48.517Z,7.35
2023-03-26T06:44:47.504Z,7.40
2023-03-26T06:45:47.462Z,7.42
2023-03-26T06:46:47.547Z,7.50
2023-03-26T06:47:47.558Z,7.50
2023-03-26T06:48:48.176Z,7.66
2023-03-26T06:49:47.428Z,7.73
2023-03-26T06:50:47.360Z,7.82
2023-03-26T06:51:47.438Z,7.76
2023-03-26T06:52:47.358Z,7.87
2023-03-26T06:53:48.355Z,8.00
2023-03-26T06:54:47.349Z,7.98
2023-03-26T06:55:47.360Z,8.03
2023-03-26T06:56:47.400Z,7.98
2023-03-26T06:57:47.429Z,8.08
2023-03-26T06:58:47.358Z,8.09
2023-03-26T06:59:47.312Z,8.06
2023-03-26T07:00:47.577Z,8.08
2023-03-26T07:01:48.053Z,8.08
2023-03-26T07:02:47.351Z,7.95
2023-03-26T07:03:47.444Z,8.00
2023-03-26T07:04:47.292Z,7.87
2023-03-26T07:05:47.238Z,8.01
2023-03-26T07:06:47.328Z,8.08
2023-03-26T07:07:47.416Z,8.12
2023-03-26T07:08:47.533Z,8.08
2023-03-26T07:09:47.245Z,7.93
2023-03-26T07:10:47.228Z,8.03
2023-03-26T07:11:47.214Z,7.94
2023-03-26T07:12:47.252Z,7.95
2023-03-26T07:13:49.422Z,7.97
2023-03-26T07:14:47.262Z,8.06
2023-03-26T07:15:47.267Z,8.12
2023-03-26T07:16:47.176Z,8.08
2023-03-26T07:17:47.278Z,8.01
2023-03-26T07:18:47.283Z,8.15
2023-03-26T07:19:47.190Z,8.12
2023-03-26T07:20:47.113Z,8.09
2023-03-26T07:21:47.362Z,8.13
2023-03-26T07:22:47.054Z,8.18
2023-03-26T07:23:47.642Z,8.13
2023-03-26T07:24:47.109Z,8.00
2023-03-26T07:25:47.275Z,8.10
2023-03-26T07:26:47.033Z,8.12
2023-03-26T07:27:47.355Z,8.24
2023-03-26T07:29:04.717Z,8.27
2023-03-26T07:29:53.532Z,8.12
2023-03-26T07:30:47.350Z,8.10
2023-03-26T07:31:47.271Z,8.24
2023-03-26T07:32:47.222Z,8.12
2023-03-26T07:33:47.127Z,8.27
2023-03-26T07:34:47.052Z,8.20
2023-03-26T07:35:47.102Z,8.13
2023-03-26T07:36:47.070Z,8.09
2023-03-26T07:37:48.197Z,8.12
2023-03-26T07:38:46.960Z,7.97
2023-03-26T07:39:47.121Z,7.97
2023-03-26T07:40:46.987Z,8.00
2023-03-26T07:41:47.168Z,8.03
2023-03-26T07:42:47.137Z,8.01
2023-03-26T07:43:47.339Z,7.87
2023-03-26T07:44:48.490Z,8.00
2023-03-26T07:45:46.945Z,7.97
2023-03-26T07:46:47.008Z,7.98
2023-03-26T07:47:46.862Z,7.93
2023-03-26T07:48:46.950Z,7.97
2023-03-26T07:49:46.965Z,8.01
2023-03-26T07:50:46.892Z,8.05
2023-03-26T07:51:46.810Z,8.09
2023-03-26T07:52:46.841Z,8.08
2023-03-26T07:53:46.914Z,8.05
2023-03-26T07:54:47.076Z,7.97
2023-03-26T07:55:46.803Z,8.06
2023-03-26T07:56:46.871Z,8.10
2023-03-26T07:57:47.008Z,8.08
2023-03-26T07:58:46.798Z,7.94
2023-03-26T07:59:48.936Z,8.03
2023-03-26T08:00:46.760Z,8.08
2023-03-26T08:01:46.854Z,7.98
2023-03-26T08:02:46.981Z,8.01
2023-03-26T08:03:46.880Z,8.00
2023-03-26T08:04:46.936Z,7.97
2023-03-26T08:05:46.783Z,8.03
2023-03-26T08:06:47.303Z,8.05
2023-03-26T08:07:46.719Z,8.05
2023-03-26T08:08:46.639Z,8.12
2023-03-26T08:09:46.683Z,7.91
2023-03-26T08:10:46.639Z,8.01
2023-03-26T08:11:46.785Z,8.08
2023-03-26T08:12:46.609Z,8.09
2023-03-26T08:13:46.693Z,8.09
2023-03-26T08:14:46.822Z,8.00
2023-03-26T08:15:46.820Z,8.00
2023-03-26T08:16:46.735Z,7.97
2023-03-26T08:17:48.460Z,7.97
2023-03-26T08:18:46.940Z,7.93
2023-03-26T08:19:46.501Z,7.88
2023-03-26T08:20:46.701Z,7.85
2023-03-26T08:21:46.632Z,7.98
2023-03-26T08:22:46.585Z,7.94
2023-03-26T08:23:50.931Z,8.05
2023-03-26T08:24:46.538Z,8.03
2023-03-26T08:25:46.551Z,8.10
2023-03-26T08:26:46.521Z,8.16
2023-03-26T08:27:46.436Z,8.05
2023-03-26T08:28:46.687Z,8.09
2023-03-26T08:29:46.493Z,8.18
2023-03-26T08:30:46.513Z,8.13
2023-03-26T08:31:46.446Z,8.16
2023-03-26T08:32:46.405Z,8.20
2023-03-26T08:33:46.411Z,8.31
2023-03-26T08:34:46.382Z,8.36
2023-03-26T08:35:46.744Z,8.44
2023-03-26T08:36:46.368Z,8.30
2023-03-26T08:37:46.687Z,8.19
2023-03-26T08:38:46.950Z,8.23
2023-03-26T08:39:48.077Z,8.44
2023-03-26T08:40:47.125Z,8.34
2023-03-26T08:41:46.329Z,8.41
2023-03-26T08:42:46.444Z,8.45
2023-03-26T08:43:46.382Z,8.37
2023-03-26T08:44:46.244Z,8.31
2023-03-26T08:45:46.605Z,8.42
2023-03-26T08:46:46.351Z,8.38
2023-03-26T08:47:46.691Z,8.53
2023-03-26T08:48:46.249Z,8.49
2023-03-26T08:49:49.333Z,8.42
2023-03-26T08:50:46.321Z,8.42
2023-03-26T08:51:49.123Z,8.46
2023-03-26T08:52:47.164Z,8.49
2023-03-26T08:53:46.180Z,8.46
2023-03-26T08:54:46.519Z,8.38
2023-03-26T08:55:46.198Z,8.49
2023-03-26T08:56:46.267Z,8.53
2023-03-26T08:57:46.181Z,8.51
2023-03-26T08:58:46.923Z,8.52
2023-03-26T08:59:46.140Z,8.48
2023-03-26T09:00:46.138Z,8.51
2023-03-26T09:01:46.200Z,8.44
2023-03-26T09:02:46.139Z,8.51
2023-03-26T09:03:46.144Z,8.48
2023-03-26T09:04:46.192Z,8.48
2023-03-26T09:05:46.030Z,8.52
2023-03-26T09:06:46.144Z,8.56
2023-03-26T09:07:46.107Z,8.64
2023-03-26T09:08:54.510Z,8.63
2023-03-26T09:09:47.009Z,8.67
2023-03-26T09:10:46.006Z,8.63
2023-03-26T09:11:45.963Z,8.58
2023-03-26T09:12:45.990Z,8.53
2023-03-26T09:13:45.985Z,8.52
2023-03-26T09:14:46.007Z,8.53
2023-03-26T09:15:45.907Z,8.53
2023-03-26T09:16:45.998Z,8.60
2023-03-26T09:17:45.949Z,8.66
2023-03-26T09:18:45.907Z,8.64
2023-03-26T09:19:45.933Z,8.48
2023-03-26T09:20:45.871Z,8.60
2023-03-26T09:21:45.988Z,8.58
2023-03-26T09:22:45.870Z,8.49
2023-03-26T09:23:45.864Z,8.70
2023-03-26T09:24:45.871Z,8.69
2023-03-26T09:25:45.929Z,8.79
2023-03-26T09:26:45.827Z,8.81
2023-03-26T09:27:45.800Z,8.81
2023-03-26T09:28:45.780Z,8.81
2023-03-26T09:29:45.831Z,8.85
2023-03-26T09:30:45.874Z,8.76
2023-03-26T09:31:45.822Z,8.91
2023-03-26T09:32:45.805Z,8.95
2023-03-26T09:33:45.782Z,8.99
2023-03-26T09:34:45.746Z,9.02
2023-03-26T09:35:45.807Z,9.11
2023-03-26T09:36:46.298Z,9.00
2023-03-26T09:37:57.969Z,9.02
2023-03-26T09:38:46.713Z,9.18
2023-03-26T09:39:45.783Z,9.21
2023-03-26T09:40:45.686Z,9.32
2023-03-26T09:41:45.737Z,9.31
2023-03-26T09:42:45.655Z,9.18
2023-03-26T09:43:45.666Z,9.26
2023-03-26T09:44:45.767Z,9.28
2023-03-26T09:45:45.639Z,9.29
2023-03-26T09:46:46.576Z,9.11
2023-03-26T09:47:46.685Z,9.13
2023-03-26T09:48:45.771Z,9.10
2023-03-26T09:49:45.688Z,9.03
2023-03-26T09:50:45.617Z,9.11
2023-03-26T09:51:45.603Z,9.02
2023-03-26T09:52:45.557Z,9.11
2023-03-26T09:53:45.718Z,9.25
2023-03-26T09:54:45.630Z,9.34
2023-03-26T09:55:45.570Z,9.14
2023-03-26T09:56:45.565Z,9.19
2023-03-26T09:57:45.574Z,9.28
2023-03-26T09:58:45.575Z,9.32
2023-03-26T09:59:45.518Z,9.26
2023-03-26T10:00:45.628Z,9.47
2023-03-26T10:01:45.522Z,9.44
2023-03-26T10:02:47.410Z,9.47
2023-03-26T10:03:45.503Z,9.44
2023-03-26T10:04:45.740Z,9.48
2023-03-26T10:05:45.541Z,9.48
2023-03-26T10:06:45.529Z,9.56
2023-03-26T10:07:46.367Z,9.55
2023-03-26T10:08:45.488Z,9.64
2023-03-26T10:09:45.582Z,9.66
2023-03-26T10:10:45.471Z,9.62
2023-03-26T10:11:45.427Z,9.77
2023-03-26T10:12:45.422Z,9.76
2023-03-26T10:13:45.483Z,9.73
2023-03-26T10:14:45.428Z,9.68
2023-03-26T10:15:45.349Z,9.66
2023-03-26T10:16:45.456Z,9.62
2023-03-26T10:17:45.385Z,9.62
2023-03-26T10:18:46.427Z,9.69
2023-03-26T10:19:45.356Z,9.62
2023-03-26T10:20:45.599Z,9.61
2023-03-26T10:21:45.339Z,9.58
2023-03-26T10:22:45.344Z,9.62
2023-03-26T10:23:45.601Z,9.58
2023-03-26T10:24:45.372Z,9.65
2023-03-26T10:25:45.879Z,9.64
2023-03-26T10:27:08.383Z,9.66
2023-03-26T10:27:46.265Z,9.61
2023-03-26T10:28:45.333Z,9.69
2023-03-26T10:29:45.355Z,9.69
2023-03-26T10:30:45.330Z,9.73
2023-03-26T10:31:45.281Z,9.72
2023-03-26T10:32:45.976Z,9.73
2023-03-26T10:33:45.333Z,9.56
2023-03-26T10:34:45.308Z,9.51
2023-03-26T10:35:45.445Z,9.34
2023-03-26T10:36:45.535Z,9.32
2023-03-26T10:37:45.622Z,9.31
2023-03-26T10:38:45.402Z,9.11
2023-03-26T10:39:45.214Z,9.11
2023-03-26T10:40:45.289Z,9.23
2023-03-26T10:41:45.333Z,9.25
2023-03-26T10:42:45.287Z,9.32
2023-03-26T10:43:49.776Z,9.32
2023-03-26T10:44:47.222Z,9.32
2023-03-26T10:45:47.228Z,9.26
2023-03-26T10:46:45.242Z,9.25
2023-03-26T10:47:45.134Z,9.18
2023-03-26T10:48:45.265Z,8.99
2023-03-26T10:49:45.033Z,8.82
2023-03-26T10:50:45.316Z,8.84
2023-03-26T10:51:45.426Z,8.76
2023-03-26T10:52:44.970Z,8.64
2023-03-26T10:53:44.962Z,8.55
2023-03-26T10:54:49.419Z,8.51
2023-03-26T10:55:46.012Z,8.41
2023-03-26T10:56:45.003Z,8.33
2023-03-26T10:57:44.988Z,8.19
2023-03-26T11:00:08.709Z,8.27
2023-03-26T11:00:10.337Z,8.27
2023-03-26T11:01:10.807Z,8.28
2023-03-26T11:02:10.447Z,8.27
2023-03-26T11:03:13.521Z,8.12
2023-03-26T11:04:10.539Z,8.26
2023-03-26T11:05:11.040Z,8.15
2023-03-26T11:06:11.138Z,8.08
2023-03-26T11:07:10.246Z,7.98
2023-03-26T11:08:10.782Z,8.03
2023-03-26T11:09:13.904Z,8.09
2023-03-26T11:10:10.511Z,8.09
2023-03-26T11:11:10.364Z,8.15
2023-03-26T11:12:25.661Z,8.12
2023-03-26T11:13:12.211Z,8.08
2023-03-26T11:14:24.372Z,8.16
2023-03-26T11:15:11.160Z,8.20
2023-03-26T11:16:10.953Z,8.26
2023-03-26T11:17:14.879Z,8.09
2023-03-26T11:18:11.185Z,8.09
2023-03-26T11:19:10.104Z,8.13
2023-03-26T11:20:10.093Z,8.24
2023-03-26T11:21:19.249Z,8.18
2023-03-26T11:22:11.111Z,8.18
2023-03-26T11:23:10.449Z,8.24
2023-03-26T11:24:10.096Z,8.30
2023-03-26T11:25:10.587Z,8.19
2023-03-26T11:26:10.202Z,8.16
2023-03-26T11:27:15.170Z,8.23
2023-03-26T11:28:12.208Z,8.24
2023-03-26T11:29:31.782Z,8.20
2023-03-26T11:30:13.699Z,8.26
2023-03-26T11:33:54.914Z,7.87
2023-03-26T11:34:54.213Z,7.76
2023-03-26T11:35:54.168Z,7.63
2023-03-26T11:36:54.209Z,7.58
2023-03-26T11:37:54.061Z,7.54
2023-03-26T11:38:54.022Z,7.57
2023-03-26T11:39:56.457Z,7.56
2023-03-26T11:40:54.567Z,7.50
2023-03-26T11:41:54.657Z,7.42
2023-03-26T11:42:54.240Z,7.43
2023-03-26T11:43:53.946Z,7.32
2023-03-26T11:44:55.077Z,7.29
2023-03-26T11:45:55.195Z,7.11
2023-03-26T11:46:55.092Z,7.14
2023-03-26T11:47:55.143Z,7.13
2023-03-26T11:48:55.067Z,7.14
2023-03-26T11:49:55.262Z,7.03
2023-03-26T11:50:55.619Z,7.03
2023-03-26T11:54:09.654Z,6.95
2023-03-26T11:55:09.679Z,6.93
2023-03-26T11:56:09.646Z,7.02
2023-03-26T11:57:10.979Z,6.96
2023-03-26T11:58:11.218Z,6.85
2023-03-26T11:59:10.758Z,6.78
2023-03-26T12:00:10.830Z,6.78
2023-03-26T12:01:10.749Z,6.77
2023-03-26T12:02:11.773Z,6.75
2023-03-26T12:03:10.707Z,6.82
2023-03-26T12:04:10.781Z,6.79
2023-03-26T12:05:10.667Z,6.77
2023-03-26T12:06:10.714Z,6.72
2023-03-26T12:07:10.753Z,6.64
2023-03-26T12:08:10.641Z,6.59
2023-03-26T12:09:10.659Z,6.70
2023-03-26T12:10:18.489Z,6.82
2023-03-26T12:11:11.613Z,6.79
2023-03-26T12:12:10.581Z,6.82
2023-03-26T12:13:10.601Z,6.84
2023-03-26T12:14:10.616Z,6.89
2023-03-26T12:15:10.588Z,6.92
2023-03-26T12:16:10.607Z,6.87
2023-03-26T12:17:10.566Z,6.99
2023-03-26T12:18:11.230Z,7.07
2023-03-26T12:19:10.512Z,7.20
2023-03-26T12:20:10.539Z,7.17
2023-03-26T12:21:10.578Z,7.18
2023-03-26T12:22:10.497Z,7.25
2023-03-26T12:23:10.471Z,7.28
2023-03-26T12:24:10.474Z,7.24
2023-03-26T12:25:10.438Z,7.40
2023-03-26T12:26:10.491Z,7.42
2023-03-26T12:27:10.431Z,7.43
2023-03-26T12:28:10.445Z,7.53
2023-03-26T12:29:10.431Z,7.54
2023-03-26T12:30:10.454Z,7.63
2023-03-26T12:31:10.449Z,7.69
2023-03-26T12:32:10.378Z,7.76
2023-03-26T12:33:10.413Z,7.87
2023-03-26T12:34:10.353Z,7.95
2023-03-26T12:35:10.352Z,8.10
2023-03-26T12:36:10.401Z,8.12
2023-03-26T12:37:10.319Z,8.09
2023-03-26T12:38:10.326Z,8.20
2023-03-26T12:40:07.851Z,8.10
2023-03-26T12:40:14.975Z,8.18
2023-03-26T12:44:42.939Z,8.19
2023-03-26T12:44:44.673Z,8.30
2023-03-26T12:44:48.106Z,8.42
2023-03-26T12:44:54.488Z,8.33
2023-03-26T12:45:11.268Z,8.37
2023-03-26T12:47:56.147Z,8.41
2023-03-26T12:47:57.630Z,8.45
2023-03-26T12:48:10.328Z,8.51
2023-03-26T12:49:10.318Z,8.52
2023-03-26T12:50:10.194Z,8.49
2023-03-26T12:51:10.225Z,8.48
2023-03-26T12:52:10.302Z,8.52
2023-03-26T12:53:10.197Z,8.53
2023-03-26T12:54:10.127Z,8.55
2023-03-26T12:55:12.247Z,8.56
2023-03-26T12:56:10.176Z,8.63
2023-03-26T12:57:11.975Z,8.56
2023-03-26T12:58:14.017Z,8.58
2023-03-26T12:59:10.151Z,8.58
2023-03-26T13:00:10.118Z,8.67
2023-03-26T13:01:10.146Z,8.64
2023-03-26T13:02:10.114Z,8.64
2023-03-26T13:03:10.159Z,8.61
2023-03-26T13:04:10.156Z,8.73
2023-03-26T13:05:10.094Z,8.78
2023-03-26T13:06:10.111Z,8.74
2023-03-26T13:07:10.018Z,8.71
2023-03-26T13:08:10.091Z,8.79
2023-03-26T13:09:10.039Z,8.78
2023-03-26T13:10:09.997Z,8.78
2023-03-26T13:11:10.089Z,8.74
2023-03-26T13:12:09.969Z,8.78
2023-03-26T13:13:09.995Z,8.74
2023-03-26T13:14:09.983Z,8.69
2023-03-26T13:15:09.978Z,8.76
2023-03-26T13:16:09.979Z,8.82
2023-03-26T13:17:09.977Z,8.74
2023-03-26T13:18:09.926Z,8.84
2023-03-26T13:19:09.945Z,8.89
2023-03-26T13:20:09.922Z,8.94
2023-03-26T13:21:09.850Z,9.00
2023-03-26T13:22:10.046Z,8.95
2023-03-26T13:23:09.890Z,9.00
2023-03-26T13:24:09.859Z,8.97
2023-03-26T13:25:09.863Z,8.92
2023-03-26T13:26:09.825Z,8.78
2023-03-26T13:27:09.879Z,8.78
2023-03-26T13:28:09.850Z,8.84
2023-03-26T13:29:09.854Z,8.78
2023-03-26T13:30:09.787Z,8.79
2023-03-26T13:31:09.842Z,8.81
2023-03-26T13:32:09.802Z,8.79
2023-03-26T13:33:09.747Z,8.84
2023-03-26T13:34:09.814Z,8.79
2023-03-26T13:35:09.773Z,8.78
2023-03-26T13:36:22.459Z,8.64
2023-03-26T13:37:11.769Z,8.73
2023-03-26T13:38:09.691Z,8.67
2023-03-26T13:39:09.731Z,8.64
2023-03-26T13:40:09.676Z,8.67
2023-03-26T13:41:09.727Z,8.61
2023-03-26T13:42:09.692Z,8.69
2023-03-26T13:43:09.709Z,8.66
2023-03-26T13:44:09.706Z,8.66
2023-03-26T13:45:09.643Z,8.67
2023-03-26T13:46:09.674Z,8.67
2023-03-26T13:47:09.646Z,8.71
2023-03-26T13:48:09.657Z,8.66
2023-03-26T13:49:09.614Z,8.76
2023-03-26T13:50:09.572Z,8.71
2023-03-26T13:51:09.581Z,8.78
2023-03-26T13:52:09.751Z,8.78
2023-03-26T13:53:09.597Z,8.79
2023-03-26T13:54:09.524Z,8.78
2023-03-26T13:55:09.555Z,8.81
2023-03-26T13:56:09.530Z,8.71
2023-03-26T13:57:09.582Z,8.71
2023-03-26T13:58:09.531Z,8.76
2023-03-26T13:59:09.537Z,8.81
2023-03-26T14:00:09.526Z,8.78
2023-03-26T14:01:09.552Z,8.89
2023-03-26T14:02:09.538Z,8.84
2023-03-26T14:03:09.509Z,8.81
2023-03-26T14:04:10.454Z,8.85
2023-03-26T14:05:09.472Z,8.89
2023-03-26T14:06:09.464Z,9.08
2023-03-26T14:07:09.439Z,9.06
2023-03-26T14:08:09.409Z,9.03
2023-03-26T14:09:09.380Z,8.99
2023-03-26T14:10:09.428Z,9.06
2023-03-26T14:11:09.501Z,9.03
2023-03-26T14:12:20.944Z,8.99
2023-03-26T14:13:10.337Z,8.95
2023-03-26T14:14:09.435Z,8.97
2023-03-26T14:15:09.355Z,8.97
2023-03-26T14:16:09.386Z,8.95
2023-03-26T14:17:09.343Z,8.95
2023-03-26T14:18:09.917Z,8.99
2023-03-26T14:19:09.282Z,8.97
2023-03-26T14:20:09.340Z,8.94
2023-03-26T14:21:09.289Z,9.03
2023-03-26T14:22:09.312Z,9.03
2023-03-26T14:23:09.295Z,9.04
2023-03-26T14:24:09.313Z,8.97
2023-03-26T14:25:09.280Z,9.16
2023-03-26T14:26:09.258Z,9.23
2023-03-26T14:27:09.250Z,9.25
2023-03-26T14:28:09.237Z,9.32
2023-03-26T14:29:09.209Z,9.23
2023-03-26T14:30:10.151Z,9.25
2023-03-26T14:31:09.279Z,9.13
2023-03-26T14:32:09.194Z,9.03
2023-03-26T14:33:09.220Z,9.06
2023-03-26T14:34:09.126Z,9.03
2023-03-26T14:35:09.168Z,9.11
2023-03-26T14:36:09.403Z,9.08
2023-03-26T14:37:09.152Z,9.14
2023-03-26T14:38:09.096Z,9.08
2023-03-26T14:39:09.106Z,9.16
2023-03-26T14:40:09.087Z,9.23
2023-03-26T14:41:09.111Z,9.21
2023-03-26T14:42:09.118Z,9.26
2023-03-26T14:43:09.665Z,9.31
2023-03-26T14:44:09.113Z,9.39
2023-03-26T14:45:09.141Z,9.46
2023-03-26T14:46:09.003Z,9.44
2023-03-26T14:47:09.132Z,9.48
2023-03-26T14:48:10.334Z,9.31
2023-03-26T14:49:10.015Z,9.31
2023-03-26T14:50:09.141Z,9.43
2023-03-26T14:51:08.974Z,9.37
2023-03-26T14:52:09.005Z,9.40
2023-03-26T14:53:08.946Z,9.46
2023-03-26T14:54:08.923Z,9.44
2023-03-26T14:55:08.957Z,9.32
2023-03-26T14:56:08.961Z,9.37
2023-03-26T14:57:09.163Z,9.34
2023-03-26T14:58:08.996Z,9.28
2023-03-26T14:59:08.930Z,9.43
2023-03-26T15:00:08.929Z,9.46
2023-03-26T15:01:08.880Z,9.40
2023-03-26T15:02:08.988Z,9.31
2023-03-26T15:03:08.931Z,9.34
2023-03-26T15:04:08.991Z,9.29
2023-03-26T15:05:08.846Z,9.31
2023-03-26T15:06:08.858Z,9.36
2023-03-26T15:07:08.793Z,9.39
2023-03-26T15:08:08.843Z,9.44
2023-03-26T15:09:08.863Z,9.48
2023-03-26T15:10:08.805Z,9.43
2023-03-26T15:11:08.837Z,9.47
2023-03-26T15:12:12.758Z,9.39
2023-03-26T15:13:08.813Z,9.32
2023-03-26T15:14:08.814Z,9.36
2023-03-26T15:15:08.752Z,9.32
2023-03-26T15:16:08.773Z,9.29
2023-03-26T15:17:08.741Z,9.32
2023-03-26T15:18:08.743Z,9.36
2023-03-26T15:19:08.704Z,9.41
2023-03-26T15:20:08.696Z,9.50
2023-03-26T15:21:08.664Z,9.44
2023-03-26T15:22:08.731Z,9.39
2023-03-26T15:23:08.690Z,9.34
2023-03-26T15:24:08.665Z,9.41
2023-03-26T15:25:08.764Z,9.32
2023-03-26T15:26:08.650Z,9.44
2023-03-26T15:27:08.609Z,9.37
2023-03-26T15:28:08.639Z,9.28
2023-03-26T15:29:08.648Z,9.23
2023-03-26T15:30:08.571Z,9.22
2023-03-26T15:31:08.568Z,9.26
2023-03-26T15:32:08.611Z,9.37
2023-03-26T15:33:08.696Z,9.31
2023-03-26T15:34:08.570Z,9.29
2023-03-26T15:35:08.584Z,9.44
2023-03-26T15:36:08.771Z,9.43
2023-03-26T15:37:08.496Z,9.41
2023-03-26T15:38:08.493Z,9.23
2023-03-26T15:39:08.512Z,9.34
2023-03-26T15:40:08.528Z,9.37
2023-03-26T15:41:08.467Z,9.19
2023-03-26T15:42:08.431Z,9.34
2023-03-26T15:43:08.527Z,9.23
2023-03-26T15:44:23.510Z,9.28
2023-03-26T15:45:09.478Z,9.21
2023-03-26T15:46:08.446Z,9.23
2023-03-26T15:47:08.548Z,9.14
2023-03-26T15:48:11.147Z,9.06
2023-03-26T15:49:09.708Z,9.00
2023-03-26T15:50:08.363Z,8.99
2023-03-26T15:51:08.385Z,8.89
2023-03-26T15:52:08.379Z,8.88
2023-03-26T15:53:08.365Z,8.91
2023-03-26T15:54:08.361Z,8.85
2023-03-26T15:55:08.353Z,8.82
2023-03-26T15:56:08.352Z,8.88
2023-03-26T15:57:08.362Z,8.87
2023-03-26T15:58:08.320Z,8.89
2023-03-26T15:59:09.151Z,8.78
2023-03-26T16:00:08.239Z,8.79
2023-03-26T16:01:08.310Z,8.78
2023-03-26T16:02:08.283Z,8.81
2023-03-26T16:03:08.263Z,8.82
2023-03-26T16:04:08.472Z,8.81
2023-03-26T16:05:08.264Z,8.89
2023-03-26T16:06:08.194Z,8.84
2023-03-26T16:07:08.192Z,8.78
2023-03-26T16:08:08.210Z,8.85
2023-03-26T16:09:08.197Z,8.71
2023-03-26T16:10:08.165Z,8.70
2023-03-26T16:11:08.187Z,8.70
2023-03-26T16:12:08.113Z,8.69
2023-03-26T16:13:08.160Z,8.64
2023-03-26T16:14:08.176Z,8.66
2023-03-26T16:15:08.144Z,8.64
2023-03-26T16:16:08.122Z,8.61
2023-03-26T16:17:08.121Z,8.55
2023-03-26T16:18:08.140Z,8.60
2023-03-26T16:19:08.046Z,8.51
2023-03-26T16:20:08.088Z,8.45
2023-03-26T16:21:08.092Z,8.60
2023-03-26T16:22:09.212Z,8.61
2023-03-26T16:23:08.041Z,8.53
2023-03-26T16:24:08.241Z,8.48
2023-03-26T16:25:27.281Z,8.42
2023-03-26T16:26:08.035Z,8.48
2023-03-26T16:27:08.059Z,8.41
2023-03-26T16:28:08.015Z,8.42
2023-03-26T16:29:08.068Z,8.48
2023-03-26T16:30:07.958Z,8.44
2023-03-26T16:31:23.470Z,8.44
2023-03-26T16:32:08.972Z,8.48
2023-03-26T16:33:07.976Z,8.49
2023-03-26T16:34:07.994Z,8.46
2023-03-26T16:35:07.947Z,8.42
2023-03-26T16:36:08.679Z,8.45
2023-03-26T16:37:07.863Z,8.51
2023-03-26T16:38:07.880Z,8.53
2023-03-26T16:39:07.943Z,8.48
2023-03-26T16:40:07.880Z,8.41
2023-03-26T16:41:07.896Z,8.44
2023-03-26T16:42:07.873Z,8.46
2023-03-26T16:43:07.832Z,8.41
2023-03-26T16:44:07.834Z,8.49
2023-03-26T16:45:07.766Z,8.48
2023-03-26T16:46:07.841Z,8.36
2023-03-26T16:47:07.750Z,8.44
2023-03-26T16:48:07.902Z,8.38
2023-03-26T16:49:07.778Z,8.42
2023-03-26T16:50:09.537Z,8.27
2023-03-26T16:51:07.758Z,8.33
2023-03-26T16:52:08.788Z,8.31
2023-03-26T16:53:07.741Z,8.23
2023-03-26T16:54:07.784Z,8.16
2023-03-26T16:55:07.697Z,8.26
2023-03-26T16:56:07.703Z,8.20
2023-03-26T16:57:08.746Z,8.20
2023-03-26T16:58:07.724Z,8.15
2023-03-26T16:59:07.648Z,8.12
2023-03-26T17:00:08.027Z,8.10
2023-03-26T17:01:07.648Z,8.20
2023-03-26T17:02:07.723Z,8.16
2023-03-26T17:03:07.811Z,8.19
2023-03-26T17:04:07.647Z,8.23
2023-03-26T17:05:07.600Z,8.15
2023-03-26T17:06:07.598Z,8.18
2023-03-26T17:07:07.641Z,8.15
2023-03-26T17:08:07.667Z,8.10
2023-03-26T17:09:08.853Z,8.06
2023-03-26T17:10:07.598Z,8.06
2023-03-26T17:11:07.609Z,8.00
2023-03-26T17:12:07.549Z,8.05
2023-03-26T17:13:07.639Z,8.00
2023-03-26T17:14:07.557Z,7.85
2023-03-26T17:15:07.605Z,7.85
2023-03-26T17:16:07.552Z,7.77
2023-03-26T17:17:07.483Z,7.79
2023-03-26T17:18:07.742Z,7.85
2023-03-26T17:19:07.619Z,7.82
2023-03-26T17:20:07.524Z,7.80
2023-03-26T17:21:07.444Z,7.76
2023-03-26T17:22:07.451Z,7.80
2023-03-26T17:23:07.438Z,7.77
2023-03-26T17:24:07.446Z,7.80
2023-03-26T17:25:08.437Z,7.88
2023-03-26T17:26:07.429Z,7.90
2023-03-26T17:27:07.390Z,7.83
2023-03-26T17:28:07.401Z,7.95
2023-03-26T17:29:07.482Z,7.87
2023-03-26T17:30:07.361Z,7.83
2023-03-26T17:31:07.418Z,7.82
2023-03-26T17:32:07.329Z,7.87
2023-03-26T17:33:07.297Z,7.76
2023-03-26T17:34:07.424Z,7.83
2023-03-26T17:35:07.391Z,7.93
2023-03-26T17:36:07.328Z,7.88
2023-03-26T17:37:07.318Z,7.90
2023-03-26T17:38:07.369Z,7.85
2023-03-26T17:39:07.286Z,7.85
2023-03-26T17:40:07.263Z,7.93
2023-03-26T17:41:07.833Z,7.94
2023-03-26T17:42:07.252Z,7.94
2023-03-26T17:43:07.294Z,7.97
2023-03-26T17:44:07.804Z,8.05
2023-03-26T17:45:07.201Z,7.98
2023-03-26T17:46:07.254Z,7.98
2023-03-26T17:47:07.188Z,7.93
2023-03-26T17:48:07.245Z,7.93
2023-03-26T17:49:07.224Z,7.88
2023-03-26T17:50:07.209Z,7.83
2023-03-26T17:51:07.187Z,7.76
2023-03-26T17:52:07.197Z,7.73
2023-03-26T17:53:07.142Z,7.66
2023-03-26T17:54:07.188Z,7.66
2023-03-26T17:55:07.159Z,7.63
2023-03-26T17:56:07.112Z,7.63
2023-03-26T17:57:07.132Z,7.48
2023-03-26T17:58:07.119Z,7.54
2023-03-26T17:59:11.447Z,7.51
2023-03-26T18:00:07.075Z,7.51
2023-03-26T18:01:07.081Z,7.43
2023-03-26T18:02:07.150Z,7.53
2023-03-26T18:03:07.160Z,7.54
2023-03-26T18:04:07.101Z,7.61
2023-03-26T18:05:07.074Z,7.48
2023-03-26T18:06:07.650Z,7.54
2023-03-26T18:07:07.027Z,7.47
2023-03-26T18:08:06.986Z,7.42
2023-03-26T18:09:08.073Z,7.40
2023-03-26T18:10:06.990Z,7.45
2023-03-26T18:11:07.834Z,7.45
2023-03-26T18:12:06.963Z,7.40
2023-03-26T18:13:06.969Z,7.38
2023-03-26T18:14:06.986Z,7.36
2023-03-26T18:15:06.929Z,7.39
2023-03-26T18:16:06.949Z,7.40
2023-03-26T18:17:06.921Z,7.33
2023-03-26T18:18:06.989Z,7.42
2023-03-26T18:19:06.891Z,7.39
2023-03-26T18:20:06.849Z,7.35
2023-03-26T18:21:06.875Z,7.43
2023-03-26T18:22:06.911Z,7.40
2023-03-26T18:23:06.829Z,7.43
2023-03-26T18:24:06.866Z,7.36
2023-03-26T18:25:06.818Z,7.25
2023-03-26T18:26:06.815Z,7.29
2023-03-26T18:27:06.828Z,7.24
2023-03-26T18:28:06.802Z,7.28
2023-03-26T18:29:06.840Z,7.18
2023-03-26T18:30:06.813Z,7.15
2023-03-26T18:31:06.716Z,7.20
2023-03-26T18:32:06.829Z,7.29
2023-03-26T18:33:06.794Z,7.21
2023-03-26T18:34:06.805Z,7.14
2023-03-26T18:35:06.692Z,7.14
2023-03-26T18:36:07.719Z,7.14
2023-03-26T18:37:06.747Z,7.10
2023-03-26T18:38:06.664Z,7.14
2023-03-26T18:39:06.697Z,7.14
2023-03-26T18:40:06.685Z,7.13
2023-03-26T18:41:06.650Z,7.18
2023-03-26T18:42:06.619Z,7.18
2023-03-26T18:43:07.168Z,7.11
2023-03-26T18:44:06.641Z,7.07
2023-03-26T18:45:06.584Z,7.18
2023-03-26T18:46:06.682Z,7.06
2023-03-26T18:47:06.570Z,7.07
2023-03-26T18:48:06.691Z,7.05
2023-03-26T18:49:06.589Z,7.17
2023-03-26T18:50:06.535Z,7.10
2023-03-26T18:51:06.584Z,7.14
2023-03-26T18:52:06.548Z,7.11
2023-03-26T18:53:06.535Z,7.05
2023-03-26T18:54:06.645Z,7.07
2023-03-26T18:55:07.334Z,7.14
2023-03-26T18:56:06.511Z,7.11
2023-03-26T18:57:15.897Z,7.02
2023-03-26T18:58:07.508Z,7.03
2023-03-26T18:59:06.543Z,7.06
2023-03-26T19:00:06.425Z,7.03
2023-03-26T19:01:10.150Z,7.06
2023-03-26T19:02:08.372Z,6.92
2023-03-26T19:03:06.496Z,6.96
2023-03-26T19:04:06.406Z,7.03
2023-03-26T19:05:06.410Z,7.07
2023-03-26T19:06:06.482Z,7.06
2023-03-26T19:07:06.404Z,7.11
2023-03-26T19:08:06.391Z,7.15
2023-03-26T19:09:11.308Z,7.07
2023-03-26T19:10:07.373Z,6.99
2023-03-26T19:11:06.362Z,6.92
2023-03-26T19:12:06.315Z,6.95
2023-03-26T19:13:06.456Z,7.05
2023-03-26T19:14:06.339Z,7.03
2023-03-26T19:15:06.328Z,6.96
2023-03-26T19:16:06.298Z,6.93
2023-03-26T19:17:06.282Z,6.97
2023-03-26T19:18:06.949Z,6.92
2023-03-26T19:19:06.325Z,6.96
2023-03-26T19:20:06.240Z,6.97
2023-03-26T19:21:06.240Z,6.93
2023-03-26T19:22:06.200Z,6.92
2023-03-26T19:23:06.198Z,6.89
2023-03-26T19:24:06.271Z,6.93
2023-03-26T19:25:06.859Z,6.87
2023-03-26T19:26:06.175Z,6.99
2023-03-26T19:27:07.046Z,6.93
2023-03-26T19:28:06.159Z,6.77
2023-03-26T19:29:06.176Z,6.89
2023-03-26T19:30:06.193Z,6.89
2023-03-26T19:31:06.225Z,6.85
2023-03-26T19:32:06.171Z,6.88
2023-03-26T19:33:13.058Z,6.82
2023-03-26T19:34:07.216Z,6.72
2023-03-26T19:35:06.199Z,6.78
2023-03-26T19:36:06.743Z,6.74
2023-03-26T19:37:06.071Z,6.67
2023-03-26T19:38:06.357Z,6.74
2023-03-26T19:39:06.095Z,6.72
2023-03-26T19:40:06.175Z,6.69
2023-03-26T19:41:06.061Z,6.67
2023-03-26T19:42:06.111Z,6.66
2023-03-26T19:43:06.056Z,6.64
2023-03-26T19:44:06.364Z,6.69
2023-03-26T19:45:06.077Z,6.62
2023-03-26T19:46:06.048Z,6.54
2023-03-26T19:47:06.040Z,6.54
2023-03-26T19:48:14.879Z,6.54
2023-03-26T19:49:08.068Z,6.57
2023-03-26T19:50:06.009Z,6.60
2023-03-26T19:51:05.942Z,6.48
2023-03-26T19:52:05.928Z,6.59
2023-03-26T19:53:15.531Z,6.46
2023-03-26T19:54:07.995Z,6.56
2023-03-26T19:55:06.021Z,6.49
2023-03-26T19:56:07.554Z,6.52